createdAt,value
2019-05-25T00:01:27.046Z,99.90
2019-05-25T00:03:54.470Z,99.90
2019-05-25T00:06:22.094Z,99.90
2019-05-25T00:08:49.493Z,99.90
2019-05-25T00:11:16.870Z,99.90
2019-05-25T00:13:44.343Z,99.90
2019-05-25T00:16:11.749Z,99.90
2019-05-25T00:18:39.119Z,99.90
2019-05-25T00:21:06.859Z,99.90
2019-05-25T00:23:34.550Z,99.90
2019-05-25T00:26:02.138Z,99.90
2019-05-25T00:28:30.071Z,99.90
2019-05-25T00:30:57.475Z,99.90
2019-05-25T00:33:24.870Z,99.90
2019-05-25T00:35:52.469Z,99.90
2019-05-25T00:38:19.875Z,99.90
2019-05-25T00:40:47.278Z,99.90
2019-05-25T00:43:14.734Z,99.90
2019-05-25T00:45:42.143Z,99.90
2019-05-25T00:48:09.528Z,99.90
2019-05-25T00:50:36.976Z,99.90
2019-05-25T00:53:04.420Z,99.90
2019-05-25T00:55:31.771Z,99.90
2019-05-25T00:57:59.421Z,99.90
2019-05-25T01:00:26.813Z,99.90
2019-05-25T01:02:54.214Z,99.90
2019-05-25T01:05:21.915Z,99.90
2019-05-25T01:07:49.306Z,99.90
2019-05-25T01:10:16.890Z,99.90
2019-05-25T01:12:44.406Z,99.90
2019-05-25T01:15:12.601Z,99.90
2019-05-25T01:17:40.004Z,99.90
2019-05-25T01:20:09.101Z,99.90
2019-05-25T01:22:36.496Z,99.90
2019-05-25T01:25:05.094Z,99.90
2019-05-25T01:27:32.852Z,99.90
2019-05-25T01:30:00.254Z,99.90
2019-05-25T01:32:27.641Z,99.90
2019-05-25T01:34:55.070Z,99.90
2019-05-25T01:37:22.478Z,99.90
2019-05-25T01:39:49.874Z,99.90
2019-05-25T01:42:17.334Z,99.90
2019-05-25T01:44:44.726Z,99.90
2019-05-25T01:47:12.107Z,99.90
2019-05-25T01:49:39.547Z,99.90
2019-05-25T01:52:06.934Z,99.90
2019-05-25T01:54:34.326Z,99.90
2019-05-25T01:57:01.905Z,99.90
2019-05-25T01:59:29.286Z,99.90
2019-05-25T02:01:56.675Z,99.90
2019-05-25T02:04:24.107Z,99.90
2019-05-25T02:06:51.502Z,99.90
2019-05-25T02:09:18.909Z,99.90
2019-05-25T02:11:46.462Z,99.90
2019-05-25T02:14:13.850Z,99.90
2019-05-25T02:16:41.246Z,99.90
2019-05-25T02:19:08.854Z,99.90
2019-05-25T02:21:36.247Z,99.90
2019-05-25T02:24:03.723Z,99.90
2019-05-25T02:26:31.419Z,99.90
2019-05-25T02:28:58.815Z,99.90
2019-05-25T02:31:26.202Z,99.90
2019-05-25T02:33:53.830Z,99.90
2019-05-25T02:36:21.232Z,99.90
2019-05-25T02:38:48.619Z,99.90
2019-05-25T02:41:16.094Z,99.90
2019-05-25T02:43:43.758Z,99.90
2019-05-25T02:46:11.081Z,99.90
2019-05-25T02:48:38.705Z,99.90
2019-05-25T02:51:06.107Z,99.90
2019-05-25T02:53:33.511Z,99.90
2019-05-25T02:56:00.949Z,99.90
2019-05-25T02:58:28.343Z,99.90
2019-05-25T03:00:56.240Z,99.90
2019-05-25T03:03:23.894Z,99.90
2019-05-25T03:05:51.588Z,99.90
2019-05-25T03:08:19.011Z,99.90
2019-05-25T03:10:48.807Z,99.90
2019-05-25T03:13:16.915Z,99.90
2019-05-25T03:15:44.305Z,99.90
2019-05-25T03:18:11.934Z,99.90
2019-05-25T03:20:39.327Z,99.90
2019-05-25T03:23:06.731Z,99.90
2019-05-25T03:25:48.517Z,99.90
2019-05-25T03:28:04.361Z,99.90
2019-05-25T03:30:33.783Z,99.90
2019-05-25T03:33:01.850Z,99.90
2019-05-25T03:35:29.337Z,99.90
2019-05-25T03:37:56.765Z,99.90
2019-05-25T03:40:24.641Z,99.90
2019-05-25T03:42:52.611Z,99.90
2019-05-25T03:45:20.014Z,99.90
2019-05-25T03:47:47.626Z,99.90
2019-05-25T03:50:15.314Z,99.90
2019-05-25T03:52:42.731Z,99.90
2019-05-25T03:55:10.319Z,99.90
2019-05-25T03:57:37.735Z,99.90
2019-05-25T04:00:05.368Z,99.90
2019-05-25T04:02:32.791Z,99.90
2019-05-25T04:05:00.198Z,99.90
2019-05-25T04:07:27.637Z,99.90
2019-05-25T04:09:55.075Z,99.90
2019-05-25T04:12:22.478Z,99.90
2019-05-25T04:14:49.872Z,99.90
2019-05-25T04:17:17.300Z,99.90
2019-05-25T04:19:44.699Z,99.90
2019-05-25T04:22:12.098Z,99.90
2019-05-25T04:24:39.542Z,99.90
2019-05-25T04:27:07.366Z,99.90
2019-05-25T04:29:34.762Z,99.90
2019-05-25T04:32:02.188Z,99.90
2019-05-25T04:34:29.582Z,99.90
2019-05-25T04:36:56.959Z,99.90
2019-05-25T04:39:24.434Z,99.90
2019-05-25T04:41:51.865Z,99.90
2019-05-25T04:44:19.243Z,99.90
2019-05-25T04:46:46.694Z,99.90
2019-05-25T04:49:14.078Z,99.90
2019-05-25T04:51:41.462Z,99.90
2019-05-25T04:54:08.902Z,99.90
2019-05-25T04:56:39.799Z,99.90
2019-05-25T04:59:05.413Z,99.90
2019-05-25T05:01:32.868Z,99.90
2019-05-25T05:04:00.256Z,99.90
2019-05-25T05:06:27.659Z,99.90
2019-05-25T05:08:55.086Z,99.90
2019-05-25T05:11:22.550Z,99.90
2019-05-25T05:13:50.040Z,99.90
2019-05-25T05:16:17.601Z,99.90
2019-05-25T05:18:44.997Z,99.90
2019-05-25T05:21:12.382Z,99.90
2019-05-25T05:23:39.811Z,99.90
2019-05-25T05:26:07.368Z,99.90
2019-05-25T05:28:35.054Z,99.90
2019-05-25T05:31:02.490Z,99.90
2019-05-25T05:33:29.897Z,99.90
2019-05-25T05:35:58.949Z,99.90
2019-05-25T05:38:27.642Z,99.90
2019-05-25T05:40:55.430Z,99.90
2019-05-25T05:43:26.422Z,99.50
2019-05-25T05:45:54.731Z,94.90
2019-05-25T05:48:25.085Z,94.30
2019-05-25T05:50:55.194Z,92.20
2019-05-25T05:53:24.634Z,91.80
2019-05-25T05:55:52.030Z,90.20
2019-05-25T05:58:19.463Z,89.20
2019-05-25T06:00:46.925Z,86.50
2019-05-25T06:03:14.331Z,85.70
2019-05-25T06:05:41.737Z,84.60
2019-05-25T06:08:09.470Z,83.00
2019-05-25T06:10:36.859Z,81.70
2019-05-25T06:13:04.251Z,83.00
2019-05-25T06:15:31.974Z,83.10
2019-05-25T06:17:59.374Z,81.90
2019-05-25T06:20:26.766Z,79.10
2019-05-25T06:22:54.524Z,80.20
2019-05-25T06:25:22.308Z,79.90
2019-05-25T06:27:50.286Z,78.10
2019-05-25T06:30:17.920Z,78.20
2019-05-25T06:32:45.356Z,77.50
2019-05-25T06:35:12.952Z,75.50
2019-05-25T06:37:40.388Z,77.20
2019-05-25T06:40:08.125Z,77.10
2019-05-25T06:42:35.552Z,75.40
2019-05-25T06:45:03.578Z,73.70
2019-05-25T06:47:31.060Z,75.90
2019-05-25T06:49:58.455Z,74.90
2019-05-25T06:52:26.031Z,75.50
2019-05-25T06:54:53.402Z,73.10
2019-05-25T06:57:20.843Z,74.70
2019-05-25T06:59:48.418Z,72.20
2019-05-25T07:02:15.831Z,70.10
2019-05-25T07:04:43.224Z,70.90
2019-05-25T07:07:10.666Z,71.40
2019-05-25T07:09:38.078Z,71.40
2019-05-25T07:12:05.474Z,71.70
2019-05-25T07:14:33.088Z,72.10
2019-05-25T07:17:00.499Z,70.80
2019-05-25T07:19:27.887Z,68.50
2019-05-25T07:21:55.362Z,70.10
2019-05-25T07:24:22.756Z,69.60
2019-05-25T07:26:50.306Z,69.50
2019-05-25T07:29:18.166Z,68.10
2019-05-25T07:31:45.574Z,68.70
2019-05-25T07:34:12.958Z,67.10
2019-05-25T07:36:40.552Z,67.60
2019-05-25T07:39:07.949Z,68.00
2019-05-25T07:41:35.363Z,68.00
2019-05-25T07:44:03.010Z,67.70
2019-05-25T07:46:30.429Z,67.30
2019-05-25T07:48:57.826Z,67.20
2019-05-25T07:51:25.438Z,66.10
2019-05-25T07:53:52.926Z,62.20
2019-05-25T07:56:20.331Z,65.70
2019-05-25T07:58:47.765Z,64.80
2019-05-25T08:01:15.166Z,65.30
2019-05-25T08:03:42.746Z,65.00
2019-05-25T08:06:10.268Z,64.20
2019-05-25T08:08:37.686Z,62.00
2019-05-25T08:11:05.078Z,61.90
2019-05-25T08:13:32.515Z,62.40
2019-05-25T08:16:00.014Z,59.30
2019-05-25T08:18:27.419Z,57.50
2019-05-25T08:20:54.974Z,56.00
2019-05-25T08:23:22.363Z,60.30
2019-05-25T08:25:49.846Z,59.80
2019-05-25T08:28:31.582Z,59.70
2019-05-25T08:30:47.020Z,58.80
2019-05-25T08:33:14.406Z,59.10
2019-05-25T08:35:41.855Z,55.90
2019-05-25T08:38:09.286Z,56.80
2019-05-25T08:40:36.691Z,57.10
2019-05-25T08:43:04.118Z,57.90
2019-05-25T08:45:31.513Z,55.80
2019-05-25T08:47:58.884Z,57.00
2019-05-25T08:50:37.605Z,55.10
2019-05-25T08:52:56.667Z,52.50
2019-05-25T08:55:24.077Z,55.30
2019-05-25T08:57:51.493Z,55.40
2019-05-25T09:00:19.079Z,53.90
2019-05-25T09:02:46.500Z,52.50
2019-05-25T09:05:14.127Z,48.00
2019-05-25T09:07:41.474Z,47.40
2019-05-25T09:10:09.068Z,46.20
2019-05-25T09:12:36.599Z,49.60
2019-05-25T09:15:06.040Z,48.80
2019-05-25T09:17:33.483Z,48.30
2019-05-25T09:20:00.919Z,46.60
2019-05-25T09:22:28.312Z,45.00
2019-05-25T09:24:55.712Z,44.60
2019-05-25T09:27:23.320Z,45.70
2019-05-25T09:29:50.886Z,45.00
2019-05-25T09:32:18.266Z,44.00
2019-05-25T09:34:45.707Z,42.60
2019-05-25T09:37:13.079Z,44.90
2019-05-25T09:39:40.472Z,44.20
2019-05-25T09:42:07.878Z,43.10
2019-05-25T09:44:35.270Z,43.30
2019-05-25T09:47:02.673Z,44.80
2019-05-25T09:49:30.274Z,44.20
2019-05-25T09:51:57.706Z,45.10
2019-05-25T09:54:25.242Z,39.90
2019-05-25T09:56:52.759Z,42.00
2019-05-25T09:59:20.737Z,42.80
2019-05-25T10:01:48.142Z,41.30
2019-05-25T10:04:15.622Z,41.30
2019-05-25T10:06:43.019Z,42.00
2019-05-25T10:09:10.424Z,42.60
2019-05-25T10:11:37.854Z,42.80
2019-05-25T10:14:05.261Z,41.40
2019-05-25T10:16:32.645Z,40.80
2019-05-25T10:19:00.206Z,42.80
2019-05-25T10:21:27.584Z,41.90
2019-05-25T10:23:54.976Z,41.60
2019-05-25T10:26:23.116Z,39.70
2019-05-25T10:28:50.923Z,38.80
2019-05-25T10:31:18.347Z,40.00
2019-05-25T10:33:46.022Z,41.20
2019-05-25T10:36:13.418Z,41.40
2019-05-25T10:38:40.813Z,39.10
2019-05-25T10:41:08.325Z,39.70
2019-05-25T10:43:35.749Z,40.20
2019-05-25T10:46:03.131Z,40.80
2019-05-25T10:48:30.671Z,40.60
2019-05-25T10:50:58.084Z,40.50
2019-05-25T10:53:25.478Z,40.90
2019-05-25T10:55:53.080Z,40.40
2019-05-25T10:58:20.502Z,40.80
2019-05-25T11:00:48.326Z,38.20
2019-05-25T11:03:15.987Z,36.90
2019-05-25T11:05:43.403Z,37.70
2019-05-25T11:08:10.781Z,37.30
2019-05-25T11:10:38.366Z,37.90
2019-05-25T11:13:05.754Z,38.30
2019-05-25T11:15:33.146Z,38.00
2019-05-25T11:18:00.985Z,37.50
2019-05-25T11:20:28.355Z,37.10
2019-05-25T11:22:55.755Z,38.20
2019-05-25T11:25:23.176Z,37.90
2019-05-25T11:27:50.681Z,37.80
2019-05-25T11:30:21.330Z,37.70
2019-05-25T11:32:48.802Z,38.50
2019-05-25T11:35:16.427Z,37.70
2019-05-25T11:37:43.806Z,37.50
2019-05-25T11:40:11.449Z,37.50
2019-05-25T11:42:38.829Z,36.90
2019-05-25T11:45:06.771Z,36.90
2019-05-25T11:47:34.245Z,36.90
2019-05-25T11:50:01.639Z,36.60
2019-05-25T11:52:29.045Z,37.20
2019-05-25T11:54:56.780Z,37.10
2019-05-25T11:57:24.166Z,37.20
2019-05-25T11:59:51.578Z,36.30
2019-05-25T12:02:18.999Z,36.70
2019-05-25T12:04:46.386Z,36.60
2019-05-25T12:07:13.774Z,35.50
2019-05-25T12:09:41.554Z,36.40
2019-05-25T12:12:08.942Z,36.10
2019-05-25T12:14:36.343Z,34.90
2019-05-25T12:17:03.963Z,34.40
2019-05-25T12:19:31.371Z,34.70
2019-05-25T12:21:58.755Z,35.20
2019-05-25T12:24:26.241Z,35.10
2019-05-25T12:26:53.782Z,36.00
2019-05-25T12:29:21.495Z,35.70
2019-05-25T12:31:48.929Z,36.00
2019-05-25T12:34:16.318Z,35.60
2019-05-25T12:36:43.710Z,36.20
2019-05-25T12:39:11.123Z,37.00
2019-05-25T12:41:38.512Z,36.60
2019-05-25T12:44:05.886Z,37.20
2019-05-25T12:46:33.312Z,36.70
2019-05-25T12:49:00.698Z,37.20
2019-05-25T12:51:28.075Z,37.00
2019-05-25T12:53:55.544Z,36.40
2019-05-25T12:56:22.938Z,35.70
2019-05-25T12:58:50.431Z,35.00
2019-05-25T13:01:17.870Z,35.70
2019-05-25T13:03:45.259Z,36.00
2019-05-25T13:06:12.662Z,35.60
2019-05-25T13:08:43.626Z,34.40
2019-05-25T13:11:09.844Z,34.90
2019-05-25T13:13:37.246Z,34.40
2019-05-25T13:16:04.838Z,35.40
2019-05-25T13:18:32.255Z,35.00
2019-05-25T13:20:59.672Z,34.50
2019-05-25T13:23:27.235Z,35.60
2019-05-25T13:25:54.626Z,35.30
2019-05-25T13:28:22.204Z,35.60
2019-05-25T13:30:50.172Z,35.30
2019-05-25T13:33:17.563Z,34.90
2019-05-25T13:35:44.969Z,35.60
2019-05-25T13:38:12.551Z,35.50
2019-05-25T13:40:39.953Z,35.60
2019-05-25T13:43:07.342Z,34.70
2019-05-25T13:45:34.771Z,35.10
2019-05-25T13:48:02.182Z,34.60
2019-05-25T13:50:29.574Z,35.30
2019-05-25T13:52:57.199Z,35.00
2019-05-25T13:55:24.597Z,34.90
2019-05-25T13:57:51.982Z,34.40
2019-05-25T14:00:19.712Z,33.30
2019-05-25T14:02:47.158Z,33.50
2019-05-25T14:05:14.514Z,34.00
2019-05-25T14:07:41.934Z,33.40
2019-05-25T14:10:09.643Z,33.90
2019-05-25T14:12:37.027Z,33.90
2019-05-25T14:15:05.578Z,34.60
2019-05-25T14:17:32.966Z,34.90
2019-05-25T14:20:00.374Z,35.30
2019-05-25T14:22:28.111Z,35.00
2019-05-25T14:24:55.503Z,34.70
2019-05-25T14:27:23.046Z,35.10
2019-05-25T14:29:51.209Z,35.00
2019-05-25T14:32:18.634Z,35.50
2019-05-25T14:34:46.056Z,35.70
2019-05-25T14:37:13.516Z,34.90
2019-05-25T14:39:40.922Z,36.00
2019-05-25T14:42:08.317Z,35.90
2019-05-25T14:44:35.790Z,36.20
2019-05-25T14:47:03.186Z,35.90
2019-05-25T14:49:30.588Z,36.90
2019-05-25T14:51:58.022Z,41.70
2019-05-25T14:54:25.718Z,42.40
2019-05-25T14:56:53.119Z,43.70
2019-05-25T14:59:20.561Z,48.10
2019-05-25T15:02:01.590Z,47.00
2019-05-25T15:04:17.136Z,48.60
2019-05-25T15:06:45.115Z,52.10
2019-05-25T15:09:12.504Z,51.20
2019-05-25T15:11:39.894Z,51.50
2019-05-25T15:14:07.359Z,53.20
2019-05-25T15:16:35.064Z,58.50
2019-05-25T15:19:02.476Z,58.00
2019-05-25T15:21:30.370Z,59.40
2019-05-25T15:23:57.834Z,57.50
2019-05-25T15:26:25.202Z,57.60
2019-05-25T15:28:52.689Z,57.20
2019-05-25T15:31:20.589Z,58.80
2019-05-25T15:33:48.035Z,58.90
2019-05-25T15:36:15.776Z,59.50
2019-05-25T15:38:43.476Z,60.90
2019-05-25T15:41:10.937Z,60.50
2019-05-25T15:43:38.568Z,59.60
2019-05-25T15:46:05.976Z,59.50
2019-05-25T15:48:33.364Z,62.10
2019-05-25T15:51:00.805Z,61.80
2019-05-25T15:53:28.200Z,64.50
2019-05-25T15:55:55.746Z,62.60
2019-05-25T15:58:23.183Z,66.30
2019-05-25T16:00:51.177Z,63.80
2019-05-25T16:03:19.643Z,65.20
2019-05-25T16:05:47.878Z,64.80
2019-05-25T16:08:16.778Z,64.20
2019-05-25T16:10:44.556Z,64.50
2019-05-25T16:13:12.010Z,67.00
2019-05-25T16:15:39.403Z,66.40
2019-05-25T16:18:06.802Z,67.70
2019-05-25T16:20:34.396Z,72.90
2019-05-25T16:23:01.774Z,69.80
2019-05-25T16:25:29.174Z,73.20
2019-05-25T16:27:56.730Z,71.20
2019-05-25T16:30:24.376Z,71.00
2019-05-25T16:35:21.280Z,74.10
2019-05-25T16:37:49.077Z,74.40
2019-05-25T16:40:16.782Z,75.20
2019-05-25T16:42:44.214Z,76.20
2019-05-25T16:45:11.834Z,75.80
2019-05-25T16:47:39.238Z,76.10
2019-05-25T16:50:08.128Z,77.10
2019-05-25T16:52:35.540Z,79.30
2019-05-25T16:55:03.046Z,81.80
2019-05-25T16:57:30.653Z,79.30
2019-05-25T16:59:58.058Z,79.50
2019-05-25T17:02:25.466Z,79.50
2019-05-25T17:04:52.910Z,79.10
2019-05-25T17:07:20.314Z,81.80
2019-05-25T17:09:47.740Z,81.90
2019-05-25T17:12:15.192Z,84.80
2019-05-25T17:14:42.583Z,81.80
2019-05-25T17:17:10.004Z,84.30
2019-05-25T17:19:37.463Z,82.20
2019-05-25T17:22:05.066Z,84.10
2019-05-25T17:24:32.478Z,83.30
2019-05-25T17:26:59.930Z,86.50
2019-05-25T17:29:27.556Z,89.90
2019-05-25T17:31:55.134Z,89.60
2019-05-25T17:34:22.588Z,89.50
2019-05-25T17:36:50.000Z,91.80
2019-05-25T17:39:17.401Z,89.40
2019-05-25T17:41:44.940Z,91.50
2019-05-25T17:44:12.338Z,91.60
2019-05-25T17:46:39.773Z,96.90
2019-05-25T17:49:07.640Z,94.30
2019-05-25T17:51:35.048Z,98.80
2019-05-25T17:54:02.439Z,99.90
2019-05-25T17:56:30.432Z,99.90
2019-05-25T17:58:57.916Z,99.90
2019-05-25T18:01:25.306Z,99.90
2019-05-25T18:04:05.643Z,99.90
2019-05-25T18:06:22.168Z,99.90
2019-05-25T18:08:49.564Z,99.90
2019-05-25T18:11:17.355Z,99.90
2019-05-25T18:13:44.751Z,99.90
2019-05-25T18:16:12.142Z,99.90
2019-05-25T18:18:39.741Z,99.90
2019-05-25T18:21:07.147Z,99.90
2019-05-25T18:23:34.559Z,99.90
2019-05-25T18:26:02.075Z,99.90
2019-05-25T18:28:30.044Z,99.90
2019-05-25T18:30:57.657Z,99.90
2019-05-25T18:33:25.330Z,99.90
2019-05-25T18:35:52.736Z,99.90
2019-05-25T18:38:20.143Z,99.90
2019-05-25T18:40:47.732Z,99.90
2019-05-25T18:43:15.208Z,99.90
2019-05-25T18:45:42.738Z,99.90
2019-05-25T18:48:10.288Z,99.90
2019-05-25T18:50:37.900Z,99.90
2019-05-25T18:53:05.439Z,99.90
2019-05-25T18:55:33.015Z,99.90
2019-05-25T18:58:00.458Z,99.90
2019-05-25T19:00:27.999Z,99.90
2019-05-25T19:02:55.614Z,99.90
2019-05-25T19:05:23.162Z,99.90
2019-05-25T19:07:50.568Z,99.90
2019-05-25T19:10:18.447Z,99.90
2019-05-25T19:12:45.881Z,99.90
2019-05-25T19:15:15.273Z,99.90
2019-05-25T19:17:42.923Z,99.90
2019-05-25T19:20:10.983Z,99.90
2019-05-25T19:22:38.523Z,99.90
2019-05-25T19:25:06.773Z,99.90
2019-05-25T19:27:34.230Z,99.90
2019-05-25T19:30:01.818Z,99.90
2019-05-25T19:32:30.162Z,99.90
2019-05-25T19:35:00.094Z,99.90
2019-05-25T19:37:26.757Z,99.90
2019-05-25T19:39:54.337Z,99.90
2019-05-25T19:42:21.790Z,99.90
2019-05-25T19:44:49.222Z,99.90
2019-05-25T19:47:16.702Z,99.90
2019-05-25T19:49:44.155Z,99.90
2019-05-25T19:52:11.564Z,99.90
2019-05-25T19:54:39.180Z,99.90
2019-05-25T19:57:06.736Z,99.90
2019-05-25T19:59:34.267Z,99.90
2019-05-25T20:02:01.693Z,99.90
2019-05-25T20:04:29.082Z,99.90
2019-05-25T20:06:56.486Z,99.90
2019-05-25T20:09:23.926Z,99.90
2019-05-25T20:11:51.318Z,99.90
2019-05-25T20:14:18.724Z,99.90
2019-05-25T20:16:46.191Z,99.90
2019-05-25T20:19:13.586Z,99.90
2019-05-25T20:21:40.989Z,99.90
2019-05-25T20:24:08.432Z,99.90
2019-05-25T20:26:35.835Z,99.90
2019-05-25T20:29:03.443Z,99.90
2019-05-25T20:31:31.333Z,99.90
2019-05-25T20:33:58.731Z,99.90
2019-05-25T20:36:26.123Z,99.90
2019-05-25T20:38:53.790Z,99.90
2019-05-25T20:41:21.204Z,99.90
2019-05-25T20:43:48.598Z,99.90
2019-05-25T20:46:16.177Z,99.90
2019-05-25T20:48:43.571Z,99.90
2019-05-25T20:51:10.954Z,99.90
2019-05-25T20:53:38.571Z,99.90
2019-05-25T20:56:05.968Z,99.90
2019-05-25T20:58:33.358Z,99.90
2019-05-25T21:01:01.124Z,99.90
2019-05-25T21:03:28.522Z,99.90
2019-05-25T21:05:55.919Z,99.90
2019-05-25T21:08:23.745Z,99.90
2019-05-25T21:10:51.141Z,99.90
2019-05-25T21:13:18.522Z,99.90
2019-05-25T21:15:46.009Z,99.90
2019-05-25T21:18:13.398Z,99.90
2019-05-25T21:20:40.790Z,99.90
2019-05-25T21:23:08.419Z,99.90
2019-05-25T21:25:35.708Z,99.90
2019-05-25T21:28:03.134Z,99.90
2019-05-25T21:30:30.751Z,99.90
2019-05-25T21:32:58.809Z,99.90
2019-05-25T21:35:26.198Z,99.90
2019-05-25T21:37:53.658Z,99.90
2019-05-25T21:40:21.054Z,99.90
2019-05-25T21:42:48.460Z,99.90
2019-05-25T21:45:16.193Z,99.90
2019-05-25T21:47:43.654Z,99.90
2019-05-25T21:50:11.992Z,99.90
2019-05-25T21:52:39.421Z,99.90
2019-05-25T21:55:07.022Z,99.90
2019-05-25T21:57:34.426Z,99.90
2019-05-25T22:00:02.516Z,99.90
2019-05-25T22:02:29.922Z,99.90
2019-05-25T22:04:57.315Z,99.90
2019-05-25T22:07:24.900Z,99.90
2019-05-25T22:09:52.293Z,99.90
2019-05-25T22:12:19.685Z,99.90
2019-05-25T22:14:47.012Z,99.90
2019-05-25T22:17:14.397Z,99.90
2019-05-25T22:19:41.796Z,99.90
2019-05-25T22:22:09.477Z,99.90
2019-05-25T22:24:36.861Z,99.90
2019-05-25T22:27:04.252Z,99.90
2019-05-25T22:29:31.843Z,99.90
2019-05-25T22:31:59.650Z,99.90
2019-05-25T22:34:27.037Z,99.90
2019-05-25T22:36:54.528Z,99.90
2019-05-25T22:39:21.997Z,99.90
2019-05-25T22:41:49.392Z,99.90
2019-05-25T22:44:17.031Z,99.90
2019-05-25T22:46:44.438Z,99.90
2019-05-25T22:49:11.818Z,99.90
2019-05-25T22:51:41.443Z,99.90
2019-05-25T22:54:08.760Z,99.90
2019-05-25T22:56:36.661Z,99.90
2019-05-25T22:59:04.102Z,99.90
2019-05-25T23:01:31.506Z,99.90
2019-05-25T23:03:58.870Z,99.90
2019-05-25T23:06:26.569Z,99.90
2019-05-25T23:08:53.938Z,99.90
2019-05-25T23:11:21.324Z,99.90
2019-05-25T23:13:48.747Z,99.90
2019-05-25T23:16:16.130Z,99.90
2019-05-25T23:18:43.517Z,99.90
2019-05-25T23:21:11.109Z,99.90
2019-05-25T23:23:38.504Z,99.90
2019-05-25T23:26:05.902Z,99.90
2019-05-25T23:28:33.440Z,99.90
2019-05-25T23:31:01.098Z,99.90
2019-05-25T23:33:29.174Z,99.90
2019-05-25T23:35:56.632Z,99.90
2019-05-25T23:38:43.632Z,99.90
2019-05-25T23:41:11.348Z,99.90
2019-05-25T23:43:38.754Z,99.90
2019-05-25T23:46:06.149Z,99.90
2019-05-25T23:48:33.758Z,99.90
2019-05-25T23:51:01.152Z,99.90
2019-05-25T23:53:28.581Z,99.90
2019-05-25T23:55:56.057Z,99.90
2019-05-25T23:58:23.482Z,99.90
